createdAt,value
2022-10-06T00:04:51.841Z,12.36
2022-10-06T00:14:59.509Z,11.25
2022-10-06T00:25:07.055Z,11.02
2022-10-06T00:35:14.639Z,10.77
2022-10-06T00:45:22.165Z,11.24
2022-10-06T00:55:29.749Z,10.6
2022-10-06T01:05:37.339Z,12.59
2022-10-06T01:15:44.923Z,9.31
2022-10-06T01:25:52.357Z,10.52
2022-10-06T01:35:59.852Z,8.12
2022-10-06T01:46:08.062Z,12.11
2022-10-06T01:56:16.398Z,12.63
2022-10-06T02:06:25.054Z,12.98
2022-10-06T02:16:33.026Z,10.77
2022-10-06T02:26:40.589Z,8.6
2022-10-06T02:36:48.149Z,7.88
2022-10-06T02:46:55.843Z,9.57
2022-10-06T02:57:03.592Z,9.92
2022-10-06T03:07:11.083Z,7.78
2022-10-06T03:17:18.628Z,12.06
2022-10-06T03:27:26.260Z,12.17
2022-10-06T03:37:33.782Z,11.74
2022-10-06T03:47:41.374Z,15.47
2022-10-06T03:57:48.781Z,13.65
2022-10-06T04:07:56.379Z,11.88
2022-10-06T04:18:03.995Z,11.69
2022-10-06T04:28:11.585Z,12.94
2022-10-06T04:38:19.130Z,17.19
2022-10-06T04:48:31.466Z,15.5
2022-10-06T04:58:30.742Z,13.44
2022-10-06T05:08:38.327Z,10.39
2022-10-06T05:18:47.118Z,13.81
2022-10-06T05:28:55.731Z,17.26
2022-10-06T05:39:03.297Z,19.74
2022-10-06T05:49:10.979Z,19.18
2022-10-06T05:59:18.553Z,19.95
2022-10-06T06:09:26.281Z,19.64
2022-10-06T06:19:33.460Z,17.24
2022-10-06T06:29:40.956Z,18.01
2022-10-06T06:39:48.606Z,13.29
2022-10-06T06:49:56.319Z,14.49
2022-10-06T07:00:04.069Z,13.94
2022-10-06T07:10:11.992Z,15.57
2022-10-06T07:20:19.728Z,13.12
2022-10-06T07:30:28.430Z,13.23
2022-10-06T07:40:35.546Z,16.99
2022-10-06T07:50:42.867Z,17.17
2022-10-06T08:00:50.461Z,11.6
2022-10-06T08:11:00.213Z,14.04
2022-10-06T08:21:04.810Z,12.95
2022-10-06T08:31:12.450Z,13.39
2022-10-06T08:41:21.288Z,11.08
2022-10-06T08:51:28.912Z,13.61
2022-10-06T09:01:36.569Z,9.15
2022-10-06T09:11:44.110Z,13.4
2022-10-06T09:21:51.851Z,10.2
2022-10-06T09:31:59.433Z,11.55
2022-10-06T09:42:07.845Z,9.93
2022-10-06T09:52:15.600Z,10.9
2022-10-06T10:02:23.229Z,13.29
2022-10-06T10:12:30.864Z,8.9
2022-10-06T10:22:38.510Z,9.07
2022-10-06T10:32:46.245Z,7.33
2022-10-06T10:42:54.865Z,9.9
2022-10-06T10:53:02.447Z,6.67
2022-10-06T11:13:13.305Z,10.13
2022-10-06T11:23:13.393Z,10.7
2022-10-06T11:33:21.551Z,8.29
2022-10-06T11:43:29.204Z,10.33
2022-10-06T11:53:37.784Z,10.13
2022-10-06T12:03:45.393Z,9.71
2022-10-06T12:15:06.337Z,13.01
2022-10-06T12:23:57.848Z,10.85
2022-10-06T12:34:05.556Z,10.63
2022-10-06T12:44:13.095Z,13.11
2022-10-06T13:04:27.283Z,13.88
2022-10-06T13:14:28.867Z,14.95
2022-10-06T13:24:39.964Z,12.17
2022-10-06T13:34:41.019Z,7.72
2022-10-06T13:44:54.267Z,9.04
2022-10-06T13:54:53.802Z,9.75
2022-10-06T14:05:02.224Z,10.97
2022-10-06T14:15:10.781Z,12.06
2022-10-06T14:25:18.662Z,8.77
2022-10-06T14:35:26.267Z,10.26
2022-10-06T14:45:33.797Z,12.23
2022-10-06T14:55:41.453Z,9.51
2022-10-06T15:05:49.146Z,9.7
2022-10-06T15:15:56.775Z,9.07
2022-10-06T15:26:05.417Z,14.73
2022-10-06T15:36:15.270Z,8.58
2022-10-06T15:46:22.862Z,7.67
2022-10-06T15:56:30.871Z,7.86
2022-10-06T16:06:39.341Z,7.77
2022-10-06T16:16:46.049Z,9.23
2022-10-06T16:26:53.797Z,8.52
2022-10-06T16:37:01.496Z,8.88
2022-10-06T16:47:10.176Z,8.15
2022-10-06T16:57:18.013Z,8.83
2022-10-06T17:07:28.124Z,8.44
2022-10-06T17:17:27.953Z,8.23
2022-10-06T17:27:41.171Z,6.72
2022-10-06T17:37:43.262Z,8.26
2022-10-06T17:47:53.935Z,10.09
2022-10-06T17:57:51.603Z,9.88
2022-10-06T18:08:01.420Z,8.55
2022-10-06T18:18:05.581Z,9.31
2022-10-06T18:28:03.907Z,9.46
2022-10-06T18:38:10.139Z,9.6
2022-10-06T18:48:08.927Z,7.21
2022-10-06T18:58:17.032Z,8.87
2022-10-06T19:08:27.544Z,8.76
2022-10-06T19:18:25.367Z,11.13
2022-10-06T19:28:33.014Z,8.92
2022-10-06T19:38:40.478Z,9.39
2022-10-06T19:48:48.379Z,8.49
2022-10-06T19:58:56.431Z,7.57
2022-10-06T20:09:04.549Z,11.44
2022-10-06T20:19:12.177Z,8.68
2022-10-06T20:29:21.508Z,9.5
2022-10-06T20:39:29.041Z,8.49
2022-10-06T20:49:36.491Z,9.75
2022-10-06T20:59:44.375Z,13.55
2022-10-06T21:09:52.982Z,12.78
2022-10-06T21:20:00.864Z,8.38
2022-10-06T21:30:08.898Z,10.13
2022-10-06T21:40:16.844Z,7.72
2022-10-06T21:50:24.742Z,8.3
2022-10-06T22:00:33.776Z,8.73
2022-10-06T22:10:41.684Z,10.91
2022-10-06T22:20:49.534Z,9.59
2022-10-06T22:30:57.591Z,8.57
2022-10-06T22:41:05.468Z,7.12
2022-10-06T22:51:13.387Z,10.72
2022-10-06T23:01:21.267Z,7.6
2022-10-06T23:11:29.016Z,8.69
2022-10-06T23:21:36.799Z,9.51
2022-10-06T23:31:44.751Z,7.95
2022-10-06T23:41:52.518Z,9.08
2022-10-06T23:52:00.375Z,8.24
